createdAt,value
2022-10-02T04:30:59.896Z,0.00
2022-10-02T04:31:59.891Z,0.00
2022-10-02T04:32:59.854Z,0.00
2022-10-02T04:33:59.842Z,0.00
2022-10-02T04:34:59.842Z,0.00
2022-10-02T04:35:59.816Z,0.00
2022-10-02T04:36:59.804Z,0.00
2022-10-02T04:37:59.784Z,0.00
2022-10-02T04:38:59.775Z,0.00
2022-10-02T04:39:59.764Z,0.00
2022-10-02T04:40:59.744Z,0.00
2022-10-02T04:41:59.732Z,0.00
2022-10-02T04:42:59.724Z,0.00
2022-10-02T04:43:59.703Z,0.00
2022-10-02T04:44:59.705Z,0.00
2022-10-02T04:45:59.697Z,0.00
2022-10-02T04:46:59.666Z,0.00
2022-10-02T04:48:06.726Z,0.00
2022-10-02T04:48:59.675Z,0.00
2022-10-02T04:49:59.635Z,0.00
2022-10-02T04:50:59.617Z,0.00
2022-10-02T04:51:59.606Z,0.00
2022-10-02T04:52:59.595Z,0.00
2022-10-02T04:53:59.584Z,0.00
2022-10-02T04:54:59.565Z,0.00
2022-10-02T04:55:59.602Z,0.00
2022-10-02T04:56:59.535Z,0.00
2022-10-02T04:57:59.524Z,0.00
2022-10-02T04:58:59.532Z,0.00
2022-10-02T04:59:59.507Z,0.00
2022-10-02T05:00:59.525Z,0.00
2022-10-02T05:01:59.509Z,0.00
2022-10-02T05:02:59.455Z,0.00
2022-10-02T05:04:03.776Z,0.00
2022-10-02T05:04:59.567Z,0.00
2022-10-02T05:05:59.435Z,0.00
2022-10-02T05:06:59.405Z,0.00
2022-10-02T05:07:59.385Z,0.00
2022-10-02T05:08:59.387Z,4.00
2022-10-02T05:09:59.364Z,0.00
2022-10-02T05:10:59.372Z,4.00
2022-10-02T05:11:59.332Z,4.00
2022-10-02T05:12:59.325Z,4.00
2022-10-02T05:13:59.301Z,8.00
2022-10-02T05:14:59.302Z,8.00
2022-10-02T05:15:59.310Z,8.00
2022-10-02T05:16:59.273Z,8.00
2022-10-02T05:17:59.253Z,8.00
2022-10-02T05:18:59.243Z,12.00
2022-10-02T05:19:59.226Z,12.00
2022-10-02T05:20:59.242Z,12.00
2022-10-02T05:21:59.203Z,12.00
2022-10-02T05:22:59.192Z,16.00
2022-10-02T05:23:59.171Z,20.00
2022-10-02T05:24:59.171Z,24.00
2022-10-02T05:25:59.153Z,28.00
2022-10-02T05:26:59.133Z,32.00
2022-10-02T05:27:59.173Z,32.00
2022-10-02T05:28:59.112Z,44.00
2022-10-02T05:29:59.100Z,48.00
2022-10-02T05:30:59.095Z,64.00
2022-10-02T05:31:59.072Z,76.00
2022-10-02T05:32:59.053Z,80.00
2022-10-02T05:33:59.046Z,80.00
2022-10-02T05:34:59.051Z,76.00
2022-10-02T05:35:59.021Z,88.00
2022-10-02T05:36:59.002Z,88.00
2022-10-02T05:37:59.212Z,96.00
2022-10-02T05:38:58.982Z,96.00
2022-10-02T05:39:58.971Z,96.00
2022-10-02T05:40:58.971Z,104.00
2022-10-02T05:41:58.942Z,116.00
2022-10-02T05:42:58.921Z,120.00
2022-10-02T05:43:58.901Z,112.00
2022-10-02T05:44:59.092Z,112.00
2022-10-02T05:45:58.963Z,136.00
2022-10-02T05:46:59.011Z,144.00
2022-10-02T05:47:58.852Z,164.00
2022-10-02T05:48:58.840Z,168.00
2022-10-02T05:49:58.844Z,160.00
2022-10-02T05:50:58.840Z,212.00
2022-10-02T05:51:58.800Z,228.00
2022-10-02T05:52:58.794Z,236.00
2022-10-02T05:53:58.778Z,272.00
2022-10-02T05:54:58.780Z,264.00
2022-10-02T05:55:58.761Z,288.00
2022-10-02T05:56:58.739Z,336.00
2022-10-02T05:57:58.720Z,376.00
2022-10-02T05:58:58.720Z,416.00
2022-10-02T05:59:58.780Z,440.00
2022-10-02T06:00:58.729Z,412.00
2022-10-02T06:01:58.704Z,404.00
2022-10-02T06:02:58.690Z,368.00
2022-10-02T06:03:58.640Z,320.00
2022-10-02T06:04:58.661Z,304.00
2022-10-02T06:05:58.629Z,312.00
2022-10-02T06:06:58.609Z,308.00
2022-10-02T06:07:58.589Z,308.00
2022-10-02T06:08:58.590Z,332.00
2022-10-02T06:09:58.559Z,376.00
2022-10-02T06:10:58.567Z,412.00
2022-10-02T06:11:58.539Z,396.00
2022-10-02T06:12:58.558Z,372.00
2022-10-02T06:13:58.508Z,356.00
2022-10-02T06:14:58.498Z,384.00
2022-10-02T06:15:58.612Z,388.00
2022-10-02T06:16:58.479Z,396.00
2022-10-02T06:17:58.468Z,352.00
2022-10-02T06:18:58.458Z,316.00
2022-10-02T06:20:03.026Z,344.00
2022-10-02T06:20:59.429Z,372.00
2022-10-02T06:21:58.406Z,420.00
2022-10-02T06:22:58.428Z,440.00
2022-10-02T06:23:58.379Z,468.00
2022-10-02T06:24:58.367Z,548.00
2022-10-02T06:25:58.458Z,608.00
2022-10-02T06:26:58.357Z,644.00
2022-10-02T06:27:58.376Z,652.00
2022-10-02T06:28:58.317Z,720.00
2022-10-02T06:29:58.358Z,804.00
2022-10-02T06:30:58.297Z,884.00
2022-10-02T06:31:58.399Z,1048.00
2022-10-02T06:32:58.265Z,1240.00
2022-10-02T06:33:58.244Z,1296.00
2022-10-02T06:34:58.237Z,1324.00
2022-10-02T06:35:58.262Z,1376.00
2022-10-02T06:36:58.208Z,1412.00
2022-10-02T06:37:58.187Z,1472.00
2022-10-02T06:38:58.205Z,1592.00
2022-10-02T06:39:58.166Z,1596.00
2022-10-02T06:40:58.161Z,1160.00
2022-10-02T06:41:58.136Z,1196.00
2022-10-02T06:42:58.127Z,1188.00
2022-10-02T06:43:58.106Z,1176.00
2022-10-02T06:44:58.097Z,1264.00
2022-10-02T06:45:58.126Z,1320.00
2022-10-02T06:46:58.075Z,1400.00
2022-10-02T06:47:58.055Z,1552.00
2022-10-02T06:48:58.047Z,1652.00
2022-10-02T06:49:58.029Z,1380.00
2022-10-02T06:50:58.105Z,1076.00
2022-10-02T06:51:58.033Z,816.00
2022-10-02T06:52:57.995Z,660.00
2022-10-02T06:53:57.976Z,600.00
2022-10-02T06:54:57.973Z,676.00
2022-10-02T06:55:57.966Z,708.00
2022-10-02T06:56:57.937Z,740.00
2022-10-02T06:57:57.927Z,640.00
2022-10-02T06:58:57.915Z,528.00
2022-10-02T06:59:57.897Z,520.00
2022-10-02T07:00:57.958Z,520.00
2022-10-02T07:01:57.938Z,548.00
2022-10-02T07:02:57.856Z,648.00
2022-10-02T07:03:57.845Z,740.00
2022-10-02T07:04:57.835Z,708.00
2022-10-02T07:05:57.815Z,764.00
2022-10-02T07:06:57.815Z,800.00
2022-10-02T07:07:57.814Z,964.00
2022-10-02T07:08:57.778Z,1144.00
2022-10-02T07:09:57.764Z,1460.00
2022-10-02T07:10:57.756Z,1552.00
2022-10-02T07:11:57.754Z,1648.00
2022-10-02T07:12:57.726Z,1828.00
2022-10-02T07:13:57.710Z,1960.00
2022-10-02T07:14:57.704Z,1948.00
2022-10-02T07:15:57.715Z,2020.00
2022-10-02T07:16:57.694Z,1976.00
2022-10-02T07:17:57.654Z,2248.00
2022-10-02T07:18:57.643Z,2060.00
2022-10-02T07:19:57.624Z,2252.00
2022-10-02T07:20:57.622Z,2396.00
2022-10-02T07:21:57.604Z,2492.00
2022-10-02T07:22:57.594Z,2656.00
2022-10-02T07:24:02.079Z,2688.00
2022-10-02T07:24:58.577Z,2660.00
2022-10-02T07:25:57.552Z,2924.00
2022-10-02T07:26:57.543Z,3124.00
2022-10-02T07:27:57.574Z,2900.00
2022-10-02T07:28:57.525Z,2960.00
2022-10-02T07:29:57.494Z,3296.00
2022-10-02T07:30:57.483Z,3416.00
2022-10-02T07:31:57.509Z,3520.00
2022-10-02T07:32:57.466Z,3624.00
2022-10-02T07:33:57.444Z,3616.00
2022-10-02T07:34:57.436Z,3628.00
2022-10-02T07:35:57.413Z,3716.00
2022-10-02T07:36:57.445Z,3948.00
2022-10-02T07:37:57.387Z,3956.00
2022-10-02T07:38:57.404Z,4100.00
2022-10-02T07:39:57.364Z,4056.00
2022-10-02T07:40:59.992Z,3796.00
2022-10-02T07:41:57.354Z,3724.00
2022-10-02T07:42:57.324Z,3900.00
2022-10-02T07:43:57.372Z,4000.00
2022-10-02T07:44:57.301Z,4144.00
2022-10-02T07:45:57.325Z,4200.00
2022-10-02T07:46:57.282Z,4556.00
2022-10-02T07:47:57.264Z,4812.00
2022-10-02T07:48:57.248Z,4472.00
2022-10-02T07:49:57.235Z,4152.00
2022-10-02T07:50:57.212Z,4160.00
2022-10-02T07:51:57.222Z,4716.00
2022-10-02T07:52:57.192Z,5132.00
2022-10-02T07:53:57.184Z,6100.00
2022-10-02T07:54:57.162Z,5800.00
2022-10-02T07:55:57.151Z,5984.00
2022-10-02T07:56:57.171Z,6516.00
2022-10-02T07:57:57.132Z,5308.00
2022-10-02T07:58:57.113Z,5704.00
2022-10-02T07:59:57.111Z,6088.00
2022-10-02T08:00:57.082Z,6140.00
2022-10-02T08:01:57.180Z,6856.00
2022-10-02T08:02:57.142Z,6512.00
2022-10-02T08:03:57.051Z,6864.00
2022-10-02T08:04:57.040Z,6368.00
2022-10-02T08:05:57.031Z,6088.00
2022-10-02T08:06:57.013Z,5580.00
2022-10-02T08:07:57.011Z,5928.00
2022-10-02T08:08:56.982Z,5636.00
2022-10-02T08:09:56.974Z,5608.00
2022-10-02T08:10:56.953Z,5368.00
2022-10-02T08:11:56.950Z,5132.00
2022-10-02T08:12:56.942Z,4404.00
2022-10-02T08:13:56.921Z,3828.00
2022-10-02T08:14:56.909Z,3832.00
2022-10-02T08:15:56.944Z,3840.00
2022-10-02T08:16:56.907Z,4000.00
2022-10-02T08:17:58.793Z,4096.00
2022-10-02T08:18:57.842Z,4276.00
2022-10-02T08:19:56.862Z,4412.00
2022-10-02T08:20:56.830Z,4276.00
2022-10-02T08:21:56.811Z,4608.00
2022-10-02T08:22:56.811Z,4688.00
2022-10-02T08:23:56.795Z,4796.00
2022-10-02T08:24:56.771Z,5028.00
2022-10-02T08:25:56.771Z,4732.00
2022-10-02T08:26:56.743Z,4784.00
2022-10-02T08:27:56.800Z,5280.00
2022-10-02T08:28:56.749Z,5616.00
2022-10-02T08:29:56.711Z,5720.00
2022-10-02T08:30:56.692Z,5848.00
2022-10-02T08:31:56.748Z,6024.00
2022-10-02T08:32:56.668Z,5960.00
2022-10-02T08:33:56.650Z,5880.00
2022-10-02T08:34:56.660Z,5784.00
2022-10-02T08:35:56.629Z,5612.00
2022-10-02T08:36:56.620Z,5716.00
2022-10-02T08:37:56.602Z,5860.00
2022-10-02T08:38:56.580Z,6120.00
2022-10-02T08:39:56.570Z,6372.00
2022-10-02T08:40:56.569Z,6552.00
2022-10-02T08:41:56.561Z,6916.00
2022-10-02T08:42:56.560Z,7036.00
2022-10-02T08:43:56.522Z,7276.00
2022-10-02T08:44:56.508Z,7748.00
2022-10-02T08:45:56.544Z,8768.00
2022-10-02T08:46:56.501Z,8104.00
2022-10-02T08:47:56.470Z,7560.00
2022-10-02T08:48:56.467Z,7368.00
2022-10-02T08:49:56.461Z,5940.00
2022-10-02T08:50:56.429Z,6096.00
2022-10-02T08:51:56.415Z,6476.00
2022-10-02T08:52:56.418Z,5948.00
2022-10-02T08:53:56.390Z,5776.00
2022-10-02T08:54:56.369Z,6188.00
2022-10-02T08:55:56.361Z,6124.00
2022-10-02T08:56:56.349Z,6452.00
2022-10-02T08:57:56.338Z,5720.00
2022-10-02T08:58:56.319Z,5936.00
2022-10-02T08:59:56.320Z,7496.00
2022-10-02T09:00:56.367Z,7272.00
2022-10-02T09:01:59.786Z,7348.00
2022-10-02T09:02:56.279Z,7704.00
2022-10-02T09:03:56.259Z,8128.00
2022-10-02T09:04:56.239Z,8712.00
2022-10-02T09:05:56.221Z,7544.00
2022-10-02T09:06:56.217Z,7876.00
2022-10-02T09:07:56.211Z,8472.00
2022-10-02T09:08:56.190Z,8324.00
2022-10-02T09:09:56.169Z,8508.00
2022-10-02T09:10:56.170Z,9144.00
2022-10-02T09:11:56.141Z,9272.00
2022-10-02T09:12:56.150Z,9692.00
2022-10-02T09:13:56.242Z,9776.00
2022-10-02T09:14:58.947Z,9292.00
2022-10-02T09:15:56.147Z,7980.00
2022-10-02T09:16:56.110Z,6852.00
2022-10-02T09:17:56.111Z,6448.00
2022-10-02T09:18:56.059Z,6488.00
2022-10-02T09:19:56.049Z,6932.00
2022-10-02T09:20:56.050Z,6832.00
2022-10-02T09:21:56.171Z,5812.00
2022-10-02T09:22:56.025Z,6016.00
2022-10-02T09:23:56.035Z,7520.00
2022-10-02T09:24:55.980Z,8528.00
2022-10-02T09:25:55.959Z,9120.00
2022-10-02T09:26:55.960Z,9948.00
2022-10-02T09:27:56.013Z,7728.00
2022-10-02T09:28:55.926Z,5980.00
2022-10-02T09:29:55.910Z,5352.00
2022-10-02T09:30:55.900Z,5412.00
2022-10-02T09:31:55.962Z,5588.00
2022-10-02T09:32:55.889Z,5876.00
2022-10-02T09:33:55.856Z,6708.00
2022-10-02T09:34:55.847Z,6484.00
2022-10-02T09:35:55.833Z,6576.00
2022-10-02T09:36:55.819Z,6664.00
2022-10-02T09:37:55.809Z,6344.00
2022-10-02T09:38:55.796Z,4436.00
2022-10-02T09:39:55.777Z,4280.00
2022-10-02T09:40:55.769Z,4152.00
2022-10-02T09:41:55.747Z,4044.00
2022-10-02T09:42:55.757Z,4276.00
2022-10-02T09:43:55.718Z,5344.00
2022-10-02T09:44:59.196Z,6496.00
2022-10-02T09:45:56.761Z,8076.00
2022-10-02T09:46:55.689Z,7828.00
2022-10-02T09:47:55.688Z,7248.00
2022-10-02T09:48:55.658Z,6324.00
2022-10-02T09:49:55.638Z,5964.00
2022-10-02T09:50:55.638Z,5296.00
2022-10-02T09:51:55.619Z,4632.00
2022-10-02T09:52:55.626Z,4092.00
2022-10-02T09:53:55.589Z,4016.00
2022-10-02T09:54:55.578Z,4468.00
2022-10-02T09:55:55.568Z,4892.00
2022-10-02T09:56:55.602Z,6072.00
2022-10-02T09:57:55.538Z,8212.00
2022-10-02T09:58:55.547Z,9360.00
2022-10-02T09:59:55.522Z,8684.00
2022-10-02T10:00:55.544Z,12800.00
2022-10-02T10:01:55.563Z,12696.00
2022-10-02T10:02:55.478Z,16576.00
2022-10-02T10:03:55.489Z,14816.00
2022-10-02T10:05:05.690Z,9556.00
2022-10-02T10:05:56.428Z,11240.00
2022-10-02T10:06:55.440Z,26368.00
2022-10-02T10:07:55.407Z,33952.00
2022-10-02T10:08:55.418Z,31488.00
2022-10-02T10:09:55.380Z,9488.00
2022-10-02T10:10:55.369Z,7252.00
2022-10-02T10:11:55.356Z,30016.00
2022-10-02T10:12:55.338Z,32416.00
2022-10-02T10:13:55.339Z,32992.00
2022-10-02T10:14:55.319Z,28544.00
2022-10-02T10:15:55.298Z,28096.00
2022-10-02T10:16:55.288Z,16992.00
2022-10-02T10:17:55.278Z,31072.00
2022-10-02T10:18:55.309Z,33824.00
2022-10-02T10:19:55.276Z,29664.00
2022-10-02T10:20:55.240Z,20512.00
2022-10-02T10:21:55.221Z,19008.00
2022-10-02T10:22:55.217Z,15808.00
2022-10-02T10:23:55.198Z,19136.00
2022-10-02T10:24:55.298Z,26176.00
2022-10-02T10:25:55.166Z,36640.00
2022-10-02T10:26:55.158Z,12556.00
2022-10-02T10:27:55.185Z,14172.00
2022-10-02T10:28:55.148Z,10548.00
2022-10-02T10:29:55.118Z,47296.00
2022-10-02T10:30:55.107Z,32576.00
2022-10-02T10:31:55.111Z,31936.00
2022-10-02T10:32:55.079Z,41760.00
2022-10-02T10:33:55.079Z,38688.00
2022-10-02T10:34:55.058Z,49792.00
2022-10-02T10:35:55.037Z,50816.00
2022-10-02T10:36:55.029Z,41376.00
2022-10-02T10:37:55.009Z,27680.00
2022-10-02T10:38:55.010Z,25216.00
2022-10-02T10:39:54.979Z,21504.00
2022-10-02T10:40:54.969Z,18336.00
2022-10-02T10:41:54.948Z,8560.00
2022-10-02T10:43:08.903Z,7452.00
2022-10-02T10:43:55.939Z,16800.00
2022-10-02T10:44:54.920Z,7476.00
2022-10-02T10:45:54.935Z,9304.00
2022-10-02T10:46:55.130Z,9328.00
2022-10-02T10:47:54.869Z,10544.00
2022-10-02T10:48:54.879Z,11404.00
2022-10-02T10:49:54.859Z,11236.00
2022-10-02T10:50:54.839Z,11344.00
2022-10-02T10:51:54.829Z,10908.00
2022-10-02T10:52:54.807Z,13332.00
2022-10-02T10:53:59.567Z,10020.00
2022-10-02T10:54:55.778Z,7672.00
2022-10-02T10:55:54.770Z,7536.00
2022-10-02T10:56:54.761Z,7824.00
2022-10-02T10:57:54.749Z,8148.00
2022-10-02T10:58:54.749Z,7116.00
2022-10-02T10:59:54.737Z,6852.00
2022-10-02T11:00:54.777Z,7264.00
2022-10-02T11:01:54.905Z,7184.00
2022-10-02T11:02:54.859Z,7104.00
2022-10-02T11:03:54.659Z,7736.00
2022-10-02T11:04:54.668Z,8032.00
2022-10-02T11:05:54.639Z,9060.00
2022-10-02T11:06:54.619Z,11144.00
2022-10-02T11:07:54.609Z,13876.00
2022-10-02T11:08:54.609Z,30208.00
2022-10-02T11:09:54.589Z,45056.00
2022-10-02T11:10:54.577Z,59584.00
2022-10-02T11:11:54.559Z,41536.00
2022-10-02T11:12:54.559Z,23744.00
2022-10-02T11:13:54.564Z,9880.00
2022-10-02T11:14:54.529Z,8408.00
2022-10-02T11:15:54.511Z,7844.00
2022-10-02T11:16:54.538Z,8984.00
2022-10-02T11:17:54.543Z,13056.00
2022-10-02T11:18:54.518Z,14288.00
2022-10-02T11:19:54.487Z,30080.00
2022-10-02T11:20:54.447Z,25920.00
2022-10-02T11:21:54.450Z,17024.00
2022-10-02T11:22:54.411Z,19584.00
2022-10-02T11:23:54.498Z,12624.00
2022-10-02T11:24:54.380Z,11344.00
2022-10-02T11:25:54.371Z,15360.00
2022-10-02T11:26:54.363Z,14740.00
2022-10-02T11:27:54.385Z,18848.00
2022-10-02T11:28:54.339Z,59456.00
2022-10-02T11:29:54.334Z,30752.00
2022-10-02T11:30:54.313Z,27136.00
2022-10-02T11:31:54.431Z,34368.00
2022-10-02T11:32:54.282Z,43072.00
2022-10-02T11:33:54.270Z,35104.00
2022-10-02T11:34:54.261Z,34912.00
2022-10-02T11:35:54.249Z,14176.00
2022-10-02T11:36:54.258Z,14820.00
2022-10-02T11:37:54.250Z,16608.00
2022-10-02T11:38:54.203Z,11828.00
2022-10-02T11:39:54.201Z,9936.00
2022-10-02T11:40:54.179Z,9940.00
2022-10-02T11:41:54.169Z,11936.00
2022-10-02T11:42:54.152Z,59072.00
2022-10-02T11:43:54.138Z,21152.00
2022-10-02T11:44:54.162Z,10636.00
2022-10-02T11:45:54.276Z,9992.00
2022-10-02T11:46:54.092Z,14484.00
2022-10-02T11:47:54.082Z,20320.00
2022-10-02T11:48:54.071Z,11180.00
2022-10-02T11:49:54.061Z,12088.00
2022-10-02T11:50:54.042Z,25696.00
2022-10-02T11:51:54.030Z,24640.00
2022-10-02T11:52:54.031Z,15100.00
2022-10-02T11:53:54.011Z,10176.00
2022-10-02T11:54:53.992Z,8400.00
2022-10-02T11:55:53.989Z,6432.00
2022-10-02T11:56:53.966Z,5956.00
2022-10-02T11:57:53.953Z,6716.00
2022-10-02T11:58:53.954Z,8104.00
2022-10-02T11:59:53.926Z,9196.00
2022-10-02T12:00:53.905Z,9596.00
2022-10-02T12:01:54.008Z,9940.00
2022-10-02T12:02:54.029Z,9908.00
2022-10-02T12:03:53.887Z,9424.00
2022-10-02T12:04:53.852Z,9908.00
2022-10-02T12:05:53.853Z,11872.00
2022-10-02T12:06:53.822Z,10620.00
2022-10-02T12:07:53.822Z,15152.00
2022-10-02T12:08:53.852Z,69920.00
2022-10-02T12:09:53.794Z,74144.00
2022-10-02T12:10:53.796Z,77504.00
2022-10-02T12:11:53.771Z,89248.00
2022-10-02T12:12:53.757Z,84000.00
2022-10-02T12:13:53.771Z,87008.00
2022-10-02T12:14:53.813Z,63712.00
2022-10-02T12:15:53.812Z,22016.00
2022-10-02T12:16:53.862Z,8552.00
2022-10-02T12:17:53.714Z,8560.00
2022-10-02T12:18:53.691Z,9400.00
2022-10-02T12:19:53.672Z,11452.00
2022-10-02T12:20:53.654Z,54528.00
2022-10-02T12:21:53.654Z,14680.00
2022-10-02T12:22:53.646Z,9876.00
2022-10-02T12:23:53.664Z,10024.00
2022-10-02T12:24:55.000Z,33472.00
2022-10-02T12:25:53.600Z,70336.00
2022-10-02T12:26:53.644Z,78720.00
2022-10-02T12:27:53.765Z,75648.00
2022-10-02T12:28:53.577Z,61408.00
2022-10-02T12:29:53.550Z,12452.00
2022-10-02T12:30:53.545Z,10548.00
2022-10-02T12:31:53.660Z,62720.00
2022-10-02T12:32:53.647Z,60896.00
2022-10-02T12:33:56.654Z,57440.00
2022-10-02T12:34:53.486Z,38368.00
2022-10-02T12:35:53.476Z,48480.00
2022-10-02T12:36:53.475Z,9440.00
2022-10-02T12:37:53.517Z,9840.00
2022-10-02T12:38:53.495Z,12720.00
2022-10-02T12:39:53.474Z,63936.00
2022-10-02T12:40:53.472Z,15264.00
2022-10-02T12:41:53.396Z,11548.00
2022-10-02T12:42:53.376Z,10864.00
2022-10-02T12:43:53.365Z,9308.00
2022-10-02T12:44:53.455Z,7092.00
2022-10-02T12:45:53.343Z,5300.00
2022-10-02T12:46:53.535Z,4324.00
2022-10-02T12:47:53.294Z,3684.00
2022-10-02T12:48:53.295Z,3208.00
2022-10-02T12:49:53.265Z,2960.00
2022-10-02T12:50:53.254Z,3088.00
2022-10-02T12:51:53.245Z,3304.00
2022-10-02T12:52:53.275Z,3624.00
2022-10-02T12:53:53.245Z,4096.00
2022-10-02T12:54:53.206Z,4932.00
2022-10-02T12:55:53.184Z,6356.00
2022-10-02T12:56:53.177Z,8456.00
2022-10-02T12:57:53.172Z,11440.00
2022-10-02T12:58:53.156Z,26528.00
2022-10-02T12:59:53.142Z,57152.00
2022-10-02T13:00:53.177Z,41408.00
2022-10-02T13:01:53.169Z,55936.00
2022-10-02T13:03:01.657Z,11716.00
2022-10-02T13:03:54.085Z,9404.00
2022-10-02T13:04:53.075Z,9192.00
2022-10-02T13:05:53.056Z,10880.00
2022-10-02T13:06:53.036Z,13988.00
2022-10-02T13:07:53.028Z,10380.00
2022-10-02T13:08:53.036Z,79072.00
2022-10-02T13:09:53.007Z,87936.00
2022-10-02T13:10:52.991Z,71520.00
2022-10-02T13:11:55.906Z,83136.00
2022-10-02T13:12:52.998Z,92384.00
2022-10-02T13:13:53.004Z,93664.00
2022-10-02T13:14:52.983Z,76160.00
2022-10-02T13:15:52.945Z,89056.00
2022-10-02T13:16:53.079Z,89888.00
2022-10-02T13:17:52.900Z,88544.00
2022-10-02T13:18:52.897Z,84512.00
2022-10-02T13:19:52.866Z,82848.00
2022-10-02T13:20:52.888Z,68672.00
2022-10-02T13:21:52.837Z,60960.00
2022-10-02T13:22:52.835Z,37600.00
2022-10-02T13:23:52.830Z,8816.00
2022-10-02T13:24:52.817Z,9056.00
2022-10-02T13:25:52.798Z,67392.00
2022-10-02T13:26:52.788Z,13496.00
2022-10-02T13:27:52.800Z,20672.00
2022-10-02T13:28:52.767Z,88896.00
2022-10-02T13:29:52.747Z,46656.00
2022-10-02T13:30:52.728Z,79616.00
2022-10-02T13:31:52.781Z,58336.00
2022-10-02T13:32:52.698Z,9052.00
2022-10-02T13:33:52.689Z,6716.00
2022-10-02T13:34:52.689Z,6096.00
2022-10-02T13:35:52.670Z,5456.00
2022-10-02T13:36:52.671Z,6164.00
2022-10-02T13:37:52.636Z,6408.00
2022-10-02T13:38:52.639Z,6628.00
2022-10-02T13:39:52.635Z,6712.00
2022-10-02T13:40:52.599Z,6368.00
2022-10-02T13:41:52.588Z,6108.00
2022-10-02T13:42:52.612Z,6480.00
2022-10-02T13:43:55.291Z,43456.00
2022-10-02T13:44:53.589Z,93568.00
2022-10-02T13:45:52.576Z,94592.00
2022-10-02T13:46:52.579Z,92960.00
2022-10-02T13:47:52.509Z,90368.00
2022-10-02T13:48:52.560Z,13432.00
2022-10-02T13:49:52.481Z,26432.00
2022-10-02T13:50:52.470Z,14060.00
2022-10-02T13:51:52.460Z,91840.00
2022-10-02T13:52:52.439Z,44512.00
2022-10-02T13:53:52.451Z,18784.00
2022-10-02T13:54:52.460Z,10612.00
2022-10-02T13:55:52.410Z,10696.00
2022-10-02T13:56:52.391Z,60960.00
2022-10-02T13:57:52.380Z,20448.00
2022-10-02T13:58:52.372Z,7248.00
2022-10-02T13:59:52.355Z,6968.00
2022-10-02T14:00:52.390Z,9776.00
2022-10-02T14:01:52.342Z,89888.00
2022-10-02T14:02:52.331Z,26048.00
2022-10-02T14:03:52.428Z,89216.00
2022-10-02T14:04:52.285Z,90912.00
2022-10-02T14:05:57.085Z,86464.00
2022-10-02T14:06:53.261Z,91008.00
2022-10-02T14:07:52.273Z,92640.00
2022-10-02T14:08:52.262Z,87552.00
2022-10-02T14:09:52.231Z,89440.00
2022-10-02T14:10:52.413Z,88096.00
2022-10-02T14:11:52.212Z,85312.00
2022-10-02T14:12:52.182Z,89856.00
2022-10-02T14:13:52.193Z,89152.00
2022-10-02T14:14:52.158Z,89504.00
2022-10-02T14:15:52.161Z,86176.00
2022-10-02T14:16:52.651Z,61952.00
2022-10-02T14:17:52.142Z,87296.00
2022-10-02T14:18:52.125Z,63488.00
2022-10-02T14:19:52.124Z,83424.00
2022-10-02T14:20:52.103Z,81952.00
2022-10-02T14:21:52.096Z,49600.00
2022-10-02T14:22:52.055Z,20768.00
2022-10-02T14:23:52.063Z,16000.00
2022-10-02T14:24:52.039Z,70240.00
2022-10-02T14:25:53.024Z,80448.00
2022-10-02T14:26:52.017Z,80864.00
2022-10-02T14:27:52.036Z,75072.00
2022-10-02T14:28:52.017Z,66688.00
2022-10-02T14:29:51.973Z,60160.00
2022-10-02T14:30:51.959Z,50752.00
2022-10-02T14:31:52.007Z,41152.00
2022-10-02T14:32:51.925Z,38688.00
2022-10-02T14:33:51.947Z,45568.00
2022-10-02T14:34:51.914Z,46400.00
2022-10-02T14:35:51.896Z,41056.00
2022-10-02T14:36:51.888Z,33600.00
2022-10-02T14:37:51.867Z,25600.00
2022-10-02T14:38:51.856Z,19552.00
2022-10-02T14:39:51.856Z,14688.00
2022-10-02T14:40:51.828Z,10580.00
2022-10-02T14:41:51.848Z,21312.00
2022-10-02T14:42:51.798Z,24480.00
2022-10-02T14:43:51.806Z,18560.00
2022-10-02T14:44:51.797Z,10624.00
2022-10-02T14:45:51.849Z,10500.00
2022-10-02T14:46:51.758Z,9656.00
2022-10-02T14:47:51.747Z,9328.00
2022-10-02T14:48:51.726Z,7240.00
2022-10-02T14:49:51.735Z,4744.00
2022-10-02T14:50:51.698Z,3932.00
2022-10-02T14:51:51.688Z,3748.00
2022-10-02T14:52:51.677Z,3720.00
2022-10-02T14:53:51.668Z,3740.00
2022-10-02T14:54:51.658Z,3908.00
2022-10-02T14:55:51.638Z,4164.00
2022-10-02T14:56:51.628Z,4492.00
2022-10-02T14:57:51.617Z,6344.00
2022-10-02T14:58:51.597Z,7944.00
2022-10-02T14:59:51.598Z,8760.00
2022-10-02T15:00:51.641Z,7896.00
2022-10-02T15:01:51.559Z,7336.00
2022-10-02T15:02:51.547Z,6816.00
2022-10-02T15:03:51.745Z,5796.00
2022-10-02T15:04:51.547Z,5936.00
2022-10-02T15:05:51.670Z,6916.00
2022-10-02T15:06:51.488Z,5900.00
2022-10-02T15:07:51.488Z,5004.00
2022-10-02T15:08:51.473Z,4160.00
2022-10-02T15:09:51.469Z,3436.00
2022-10-02T15:10:51.440Z,3048.00
2022-10-02T15:11:51.440Z,2772.00
2022-10-02T15:12:51.409Z,2708.00
2022-10-02T15:13:51.418Z,2668.00
2022-10-02T15:14:51.399Z,2668.00
2022-10-02T15:15:51.396Z,2644.00
2022-10-02T15:16:51.360Z,3032.00
2022-10-02T15:17:51.489Z,20224.00
2022-10-02T15:18:51.339Z,4400.00
2022-10-02T15:19:51.338Z,2760.00
2022-10-02T15:20:51.312Z,3080.00
2022-10-02T15:21:51.299Z,3836.00
2022-10-02T15:22:51.407Z,3876.00
2022-10-02T15:23:51.269Z,3420.00
2022-10-02T15:24:51.264Z,4108.00
2022-10-02T15:25:51.248Z,6936.00
2022-10-02T15:26:51.219Z,7260.00
2022-10-02T15:27:51.357Z,45728.00
2022-10-02T15:28:51.226Z,8260.00
2022-10-02T15:29:51.209Z,15712.00
2022-10-02T15:30:51.169Z,45216.00
2022-10-02T15:31:51.189Z,53312.00
2022-10-02T15:32:51.150Z,54240.00
2022-10-02T15:33:51.139Z,52384.00
2022-10-02T15:34:51.129Z,54240.00
2022-10-02T15:35:51.138Z,52736.00
2022-10-02T15:36:51.089Z,51680.00
2022-10-02T15:37:51.092Z,51392.00
2022-10-02T15:38:51.068Z,49728.00
2022-10-02T15:39:51.071Z,50944.00
2022-10-02T15:40:51.039Z,50400.00
2022-10-02T15:41:51.040Z,50656.00
2022-10-02T15:42:53.195Z,49472.00
2022-10-02T15:43:52.009Z,49152.00
2022-10-02T15:44:50.990Z,48896.00
2022-10-02T15:45:51.058Z,47904.00
2022-10-02T15:46:50.967Z,46976.00
2022-10-02T15:47:50.951Z,46080.00
2022-10-02T15:48:52.605Z,45504.00
2022-10-02T15:49:50.941Z,45408.00
2022-10-02T15:50:50.929Z,44064.00
2022-10-02T15:51:50.903Z,41472.00
2022-10-02T15:52:50.882Z,39712.00
2022-10-02T15:53:50.878Z,38464.00
2022-10-02T15:54:50.861Z,37632.00
2022-10-02T15:55:50.861Z,36128.00
2022-10-02T15:56:50.841Z,37600.00
2022-10-02T15:57:50.821Z,38752.00
2022-10-02T15:58:50.811Z,38432.00
2022-10-02T15:59:50.801Z,39072.00
2022-10-02T16:00:50.823Z,37952.00
2022-10-02T16:01:50.842Z,37024.00
2022-10-02T16:02:50.755Z,36576.00
2022-10-02T16:03:50.755Z,35904.00
2022-10-02T16:04:50.742Z,35328.00
2022-10-02T16:05:50.732Z,33888.00
2022-10-02T16:06:50.708Z,33152.00
2022-10-02T16:07:50.702Z,32576.00
2022-10-02T16:08:50.682Z,31296.00
2022-10-02T16:09:50.691Z,31008.00
2022-10-02T16:10:50.663Z,21216.00
2022-10-02T16:11:50.641Z,8164.00
2022-10-02T16:12:50.631Z,5848.00
2022-10-02T16:13:50.620Z,5476.00
2022-10-02T16:14:50.620Z,5204.00
2022-10-02T16:15:50.591Z,4988.00
2022-10-02T16:16:50.603Z,4796.00
2022-10-02T16:17:50.572Z,4628.00
2022-10-02T16:18:50.543Z,4480.00
2022-10-02T16:19:50.565Z,4364.00
2022-10-02T16:20:50.533Z,4160.00
2022-10-02T16:21:50.512Z,3444.00
2022-10-02T16:22:50.503Z,2808.00
2022-10-02T16:23:50.494Z,2692.00
2022-10-02T16:24:50.473Z,2608.00
2022-10-02T16:25:50.475Z,2528.00
2022-10-02T16:26:50.443Z,2444.00
2022-10-02T16:27:50.514Z,2360.00
2022-10-02T16:28:50.424Z,2280.00
2022-10-02T16:29:50.412Z,2208.00
2022-10-02T16:30:50.415Z,2136.00
2022-10-02T16:31:50.462Z,2064.00
2022-10-02T16:32:50.364Z,1992.00
2022-10-02T16:33:50.365Z,1920.00
2022-10-02T16:34:50.344Z,1852.00
2022-10-02T16:35:50.353Z,1780.00